Time;durP1;ratioP1;P1;durP2;ratioP2;P2;SDS_P1;SDS_P2;PMS_P1;PMS_P2;Temp;Humidity;BMP_temperature;BMP_pressure;BME280_temperature;BME280_humidity;BME280_pressure;Samples;Min_cycle;Max_cycle;Signal;HPM_P1;HPM_P2
2022/09/09 00:03:02;;;;;;;0.50;0.50;;;;;;;12.09;94.35;97569.75;6080005;29;20242;-70
2022/09/09 00:06:19;;;;;;;1.77;0.83;;;;;;;12.05;94.27;97565.72;6085385;29;20382;-71
2022/09/09 00:09:29;;;;;;;0.60;0.60;;;;;;;12.04;94.50;97564.06;6099895;29;20228;-71
2022/09/09 00:13:01;;;;;;;1.30;0.60;;;;;;;12.00;94.59;97562.63;6104057;29;20239;-71
2022/09/09 00:16:16;;;;;;;1.30;0.60;;;;;;;12.00;94.37;97567.09;6089327;29;20235;-70
2022/09/09 00:19:24;;;;;;;1.07;0.63;;;;;;;11.97;94.44;97570.03;6103686;29;20232;-70
2022/09/09 00:22:33;;;;;;;0.97;0.50;;;;;;;11.95;94.83;97572.78;6087424;29;20244;-70
2022/09/09 00:25:49;;;;;;;0.77;0.50;;;;;;;11.93;94.74;97565.97;6103430;29;20250;-70
2022/09/09 00:29:03;;;;;;;0.60;0.60;;;;;;;11.91;94.61;97575.81;6088484;29;20769;-70
2022/09/09 00:32:18;;;;;;;0.83;0.60;;;;;;;11.88;94.64;97570.81;6102973;29;20789;-70
2022/09/09 00:35:34;;;;;;;1.70;0.57;;;;;;;11.82;94.55;97567.72;6103271;29;20232;-70
2022/09/09 00:38:49;;;;;;;1.43;0.60;;;;;;;11.79;94.88;97561.88;6102997;29;20227;-70
2022/09/09 00:42:09;;;;;;;3.97;0.70;;;;;;;11.75;94.94;97563.97;6088815;29;20344;-70
2022/09/09 00:45:14;;;;;;;0.80;0.57;;;;;;;11.72;95.05;97566.00;6088755;29;20224;-70
2022/09/09 00:48:16;;;;;;;2.70;0.63;;;;;;;11.70;95.29;97579.34;6089240;29;20500;-70
2022/09/09 00:51:35;;;;;;;0.50;0.50;;;;;;;11.70;95.18;97573.22;6087984;29;20283;-70
2022/09/09 00:55:09;;;;;;;1.07;0.50;;;;;;;11.66;95.42;97577.09;6094891;29;20229;-70
2022/09/09 00:58:12;;;;;;;2.83;0.73;;;;;;;11.65;95.75;97578.06;6101090;29;20243;-70
2022/09/09 01:01:45;;;;;;;0.73;0.60;;;;;;;11.65;95.64;97588.66;6087274;29;20247;-70
2022/09/09 01:04:47;;;;;;;1.80;0.50;;;;;;;11.64;95.90;97595.72;6087861;29;20235;-70
2022/09/09 01:07:49;;;;;;;1.63;0.67;;;;;;;11.67;95.54;97597.28;6088644;29;20239;-70
2022/09/09 01:10:59;;;;;;;0.70;0.60;;;;;;;11.66;95.56;97592.97;6086774;29;20247;-70
2022/09/09 01:14:10;;;;;;;1.33;0.70;;;;;;;11.63;95.83;97598.50;6101683;29;20232;-70
2022/09/09 01:17:22;;;;;;;0.60;0.40;;;;;;;11.58;95.50;97588.31;6102617;29;20232;-70
2022/09/09 01:20:55;;;;;;;1.50;0.70;;;;;;;11.56;95.37;97607.94;6083037;29;20243;-70
2022/09/09 01:24:05;;;;;;;0.50;0.50;;;;;;;11.49;95.54;97602.31;6101484;29;20220;-70
2022/09/09 01:27:31;;;;;;;1.77;0.67;;;;;;;11.47;95.64;97606.91;6101476;29;20228;-70
2022/09/09 01:30:36;;;;;;;2.37;0.63;;;;;;;11.44;95.66;97599.25;6101546;29;20302;-70
2022/09/09 01:33:38;;;;;;;2.07;0.40;;;;;;;11.41;95.31;97607.41;6087719;29;20326;-70
2022/09/09 01:36:50;;;;;;;2.87;0.70;;;;;;;11.40;95.16;97605.75;6101592;29;20239;-70
2022/09/09 01:39:52;;;;;;;2.53;0.67;;;;;;;11.39;95.73;97612.81;6072339;29;20239;-70
2022/09/09 01:42:56;;;;;;;1.27;0.60;;;;;;;11.36;95.31;97610.47;6087660;29;20235;-70
2022/09/09 01:46:01;;;;;;;0.47;0.43;;;;;;;11.32;95.34;97614.31;6101308;29;20239;-70
2022/09/09 01:49:07;;;;;;;0.40;0.40;;;;;;;11.27;95.43;97616.53;6101682;29;20238;-70
2022/09/09 01:52:09;;;;;;;1.13;0.50;;;;;;;11.25;95.43;97609.69;6080268;29;20242;-70
2022/09/09 01:55:13;;;;;;;0.93;0.50;;;;;;;11.22;95.41;97607.31;6085332;29;20628;-70
2022/09/09 01:58:55;;;;;;;1.13;0.53;;;;;;;11.23;95.22;97603.69;6085563;29;20235;-70
2022/09/09 02:02:10;;;;;;;0.50;0.40;;;;;;;11.21;95.21;97602.97;6102278;29;20222;-70
2022/09/09 02:05:39;;;;;;;3.43;0.60;;;;;;;11.15;94.96;97604.34;6100875;29;20657;-70
2022/09/09 02:09:04;;;;;;;1.70;0.70;;;;;;;11.11;94.83;97608.19;6085292;29;20645;-70
2022/09/09 02:12:17;;;;;;;0.60;0.50;;;;;;;11.05;95.25;97604.28;6104960;29;20224;-70
2022/09/09 02:16:17;;;;;;;2.10;0.67;;;;;;;10.98;95.09;97594.34;6101062;29;20287;-70
2022/09/09 02:19:26;;;;;;;3.57;0.70;;;;;;;10.94;95.29;97596.41;6073949;29;20242;-70
2022/09/09 02:22:44;;;;;;;0.63;0.63;;;;;;;10.94;95.53;97601.69;6086136;29;20231;-70
2022/09/09 02:25:52;;;;;;;1.60;0.60;;;;;;;10.92;95.32;97600.13;6087157;29;20242;-70
2022/09/09 02:28:59;;;;;;;0.40;0.40;;;;;;;10.89;95.34;97592.47;6085946;29;20259;-70
2022/09/09 02:32:06;;;;;;;0.80;0.67;;;;;;;10.85;95.16;97589.25;6100241;29;20314;-70
2022/09/09 02:35:20;;;;;;;0.70;0.50;;;;;;;10.86;95.33;97606.78;6101013;29;20250;-70
2022/09/09 02:38:28;;;;;;;1.63;0.60;;;;;;;10.85;95.52;97610.38;6101132;29;20334;-70
2022/09/09 02:41:42;;;;;;;3.20;0.50;;;;;;;10.82;95.26;97612.41;6099754;29;20243;-70
2022/09/09 02:44:45;;;;;;;2.23;0.63;;;;;;;10.79;95.51;97608.22;6085833;29;20242;-70
2022/09/09 02:48:08;;;;;;;2.83;0.50;;;;;;;10.82;95.42;97610.63;6100708;29;20233;-70
2022/09/09 02:51:18;;;;;;;1.27;0.50;;;;;;;10.82;95.37;97610.63;6086077;29;20318;-70
2022/09/09 02:54:28;;;;;;;4.47;0.70;;;;;;;10.81;95.38;97616.84;6076991;29;20243;-70
2022/09/09 02:57:33;;;;;;;2.80;0.83;;;;;;;10.78;95.42;97613.66;6094142;29;20234;-70
2022/09/09 03:00:37;;;;;;;0.90;0.40;;;;;;;10.77;95.13;97609.34;6085390;29;20250;-70
2022/09/09 03:03:39;;;;;;;3.90;0.70;;;;;;;10.79;95.43;97610.03;6100462;29;20233;-70
2022/09/09 03:06:45;;;;;;;1.63;0.50;;;;;;;10.78;95.44;97598.63;6084215;29;20718;-70
2022/09/09 03:09:53;;;;;;;1.03;0.60;;;;;;;10.81;95.64;97605.47;6100617;29;20250;-71
2022/09/09 03:12:58;;;;;;;0.70;0.60;;;;;;;10.84;95.61;97608.69;6083351;29;20239;-70
2022/09/09 03:16:04;;;;;;;0.40;0.40;;;;;;;10.84;95.83;97594.66;6100037;29;20246;-71
2022/09/09 03:19:12;;;;;;;0.67;0.57;;;;;;;10.84;95.43;97594.66;6099713;29;20311;-71
2022/09/09 03:22:15;;;;;;;2.47;0.63;;;;;;;10.82;95.67;97592.13;6084680;29;20246;-71
2022/09/09 03:25:19;;;;;;;1.90;0.50;;;;;;;10.81;95.90;97585.19;6083503;29;20245;-70
2022/09/09 03:28:21;;;;;;;0.70;0.50;;;;;;;10.80;95.94;97587.94;6099692;29;20764;-70
2022/09/09 03:31:25;;;;;;;1.07;0.60;;;;;;;10.82;95.92;97588.66;6100213;29;20237;-70
2022/09/09 03:34:27;;;;;;;0.60;0.60;;;;;;;10.81;96.29;97589.63;6098971;29;20248;-70
2022/09/09 03:37:31;;;;;;;0.60;0.60;;;;;;;10.83;96.11;97582.41;6085326;29;20260;-70
2022/09/09 03:40:33;;;;;;;1.03;0.50;;;;;;;10.85;96.12;97578.69;6099835;29;20360;-70
2022/09/09 03:43:36;;;;;;;1.93;0.77;;;;;;;10.83;96.29;97582.41;6101502;29;20253;-70
2022/09/09 03:46:39;;;;;;;0.93;0.73;;;;;;;10.79;96.07;97573.91;6104182;29;20334;-70
2022/09/09 03:49:40;;;;;;;2.37;0.60;;;;;;;10.77;96.53;97581.13;6104049;29;20726;-70
2022/09/09 03:52:43;;;;;;;0.60;0.60;;;;;;;10.77;96.53;97577.66;6065408;29;20265;-70
2022/09/09 03:55:54;;;;;;;0.43;0.43;;;;;;;10.75;96.42;97576.94;6090803;29;20249;-70
2022/09/09 03:58:58;;;;;;;0.93;0.57;;;;;;;10.71;96.30;97577.19;6107196;29;20242;-70
2022/09/09 04:02:02;;;;;;;0.50;0.50;;;;;;;10.70;96.76;97574.66;6107651;29;20716;-70
2022/09/09 04:05:06;;;;;;;0.67;0.63;;;;;;;10.72;96.91;97578.88;6098910;29;20239;-70
2022/09/09 04:08:08;;;;;;;0.73;0.73;;;;;;;10.73;96.70;97584.97;6089128;29;20245;-70
2022/09/09 04:11:10;;;;;;;1.50;0.40;;;;;;;10.72;96.30;97593.84;6103938;29;20234;-70
2022/09/09 04:14:13;;;;;;;1.00;0.40;;;;;;;10.70;96.63;97596.63;6103001;29;20716;-70
2022/09/09 04:17:15;;;;;;;0.60;0.50;;;;;;;10.70;96.59;97604.53;6089717;29;20234;-70
2022/09/09 04:20:17;;;;;;;0.83;0.50;;;;;;;10.66;96.39;97604.94;6088383;29;20238;-70
2022/09/09 04:23:20;;;;;;;0.50;0.50;;;;;;;10.59;96.01;97609.84;6087969;29;20231;-70
2022/09/09 04:26:22;;;;;;;1.17;0.63;;;;;;;10.58;96.23;97608.16;6103097;29;20281;-70
2022/09/09 04:29:24;;;;;;;0.57;0.50;;;;;;;10.57;96.18;97616.25;6103699;29;20229;-70
2022/09/09 04:32:27;;;;;;;1.60;0.60;;;;;;;10.46;95.78;97608.34;6088412;29;20613;-70
2022/09/09 04:35:29;;;;;;;1.50;0.67;;;;;;;10.33;95.61;97611.13;6089212;29;20290;-70
2022/09/09 04:38:31;;;;;;;0.80;0.40;;;;;;;10.28;96.07;97614.13;6103983;29;20238;-70
2022/09/09 04:41:33;;;;;;;1.27;0.70;;;;;;;10.26;95.98;97613.44;6087512;29;20705;-70
2022/09/09 04:44:35;;;;;;;1.47;0.60;;;;;;;10.26;96.02;97617.88;6089562;29;20630;-70
2022/09/09 04:47:37;;;;;;;1.20;0.73;;;;;;;10.27;96.39;97620.38;6104052;29;20853;-70
2022/09/09 04:50:40;;;;;;;0.93;0.60;;;;;;;10.29;96.28;97615.81;6086443;29;20218;-70
2022/09/09 04:53:47;;;;;;;0.77;0.70;;;;;;;10.27;96.57;97620.38;6087963;29;20752;-70
2022/09/09 04:56:50;;;;;;;2.17;0.87;;;;;;;10.25;96.70;97610.91;6087414;29;20242;-70
2022/09/09 04:59:53;;;;;;;1.97;0.67;;;;;;;10.24;97.27;97599.53;6102263;29;20235;-70
2022/09/09 05:02:55;;;;;;;3.30;0.90;;;;;;;10.22;96.89;97603.25;6087676;29;20582;-70
2022/09/09 05:06:19;;;;;;;2.03;0.80;;;;;;;10.21;97.32;97618.22;6101894;29;20245;-69
2022/09/09 05:09:24;;;;;;;4.17;0.90;;;;;;;10.22;97.32;97605.88;6102093;29;20258;-70
2022/09/09 05:12:26;;;;;;;1.10;0.73;;;;;;;10.25;97.89;97609.13;6101938;29;20241;-70
2022/09/09 05:15:29;;;;;;;1.57;0.90;;;;;;;10.28;97.87;97605.41;6102107;29;20245;-70
2022/09/09 05:18:32;;;;;;;2.40;1.03;;;;;;;10.31;97.76;97605.13;6087765;29;20234;-70
2022/09/09 05:21:34;;;;;;;3.23;1.00;;;;;;;10.37;97.97;97601.19;6101334;29;20244;-70
2022/09/09 05:24:36;;;;;;;2.33;0.70;;;;;;;10.43;98.04;97600.69;6087692;29;20235;-70
2022/09/09 05:27:39;;;;;;;1.90;0.80;;;;;;;10.53;97.57;97618.28;6101699;29;20668;-70
2022/09/09 05:30:41;;;;;;;0.80;0.80;;;;;;;10.69;98.00;97625.78;6086556;29;20238;-70
2022/09/09 05:33:45;;;;;;;1.13;0.80;;;;;;;10.85;97.73;97631.50;6100826;29;20229;-70
2022/09/09 05:36:48;;;;;;;1.70;1.00;;;;;;;10.95;97.29;97626.28;6101494;29;20264;-70
2022/09/09 05:39:50;;;;;;;0.80;0.80;;;;;;;11.07;97.28;97620.00;6101794;29;20249;-70
2022/09/09 05:42:53;;;;;;;0.93;0.80;;;;;;;11.17;97.28;97626.19;6101582;29;20241;-70
2022/09/09 05:46:19;;;;;;;0.80;0.80;;;;;;;11.25;96.86;97622.91;6101297;29;20408;-70
2022/09/09 05:49:23;;;;;;;0.83;0.73;;;;;;;11.35;96.68;97626.44;6085003;29;20339;-70
2022/09/09 05:52:26;;;;;;;0.63;0.63;;;;;;;11.40;96.35;97633.00;6101095;29;20242;-70
2022/09/09 05:55:31;;;;;;;1.80;0.60;;;;;;;11.44;96.05;97639.72;6100650;29;20261;-70
2022/09/09 05:58:34;;;;;;;1.23;0.70;;;;;;;11.48;95.73;97638.47;6101153;29;20231;-70
2022/09/09 06:01:48;;;;;;;0.77;0.60;;;;;;;11.52;95.91;97633.78;6085605;29;20266;-70
2022/09/09 06:05:05;;;;;;;0.60;0.60;;;;;;;11.52;95.67;97628.50;6085908;29;20600;-70
2022/09/09 06:08:07;;;;;;;1.00;0.90;;;;;;;11.48;95.75;97607.75;6086099;29;20675;-70
2022/09/09 06:11:16;;;;;;;0.87;0.80;;;;;;;11.50;95.74;97609.28;6100563;29;20239;-70
2022/09/09 06:14:19;;;;;;;0.93;0.73;;;;;;;11.58;95.83;97613.94;6086148;29;20236;-71
2022/09/09 06:17:23;;;;;;;2.43;0.73;;;;;;;11.72;95.54;97614.41;6100977;29;20238;-71
2022/09/09 06:20:26;;;;;;;0.77;0.57;;;;;;;11.81;95.48;97604.88;6087589;29;20236;-71
2022/09/09 06:23:28;;;;;;;1.73;1.00;;;;;;;11.94;94.96;97600.22;6085090;29;20223;-71
2022/09/09 06:26:42;;;;;;;0.67;0.60;;;;;;;12.17;95.00;97598.22;6099872;29;20247;-71
2022/09/09 06:29:48;;;;;;;3.80;0.80;;;;;;;12.45;94.27;97597.44;6101227;29;20238;-70
2022/09/09 06:32:51;;;;;;;2.30;1.10;;;;;;;12.72;94.14;97604.69;6100027;29;20243;-70
2022/09/09 06:35:54;;;;;;;0.73;0.73;;;;;;;12.96;93.37;97608.75;6085880;29;20254;-70
2022/09/09 06:38:57;;;;;;;1.50;0.80;;;;;;;13.15;93.04;97620.22;6101303;29;20338;-71
2022/09/09 06:41:59;;;;;;;0.90;0.70;;;;;;;13.25;92.68;97621.03;6099835;29;20236;-71
2022/09/09 06:45:25;;;;;;;1.67;1.10;;;;;;;13.35;92.76;97622.84;6076623;29;20649;-70
2022/09/09 06:48:32;;;;;;;1.43;0.70;;;;;;;13.43;92.62;97621.16;6093961;29;20238;-70
2022/09/09 06:51:42;;;;;;;0.60;0.60;;;;;;;13.51;92.60;97605.38;6100161;29;20220;-70
2022/09/09 06:54:46;;;;;;;1.43;1.07;;;;;;;13.62;92.42;97602.53;6099989;29;20236;-70
2022/09/09 06:57:50;;;;;;;1.70;0.60;;;;;;;13.67;92.42;97588.88;6100567;29;20227;-70
2022/09/09 07:01:06;;;;;;;2.47;0.73;;;;;;;13.64;92.23;97603.25;6100632;29;20590;-71
2022/09/09 07:04:10;;;;;;;1.57;0.80;;;;;;;13.73;93.01;97606.84;6084737;29;20238;-70
2022/09/09 07:07:15;;;;;;;1.47;0.70;;;;;;;13.87;92.75;97606.38;6085115;29;20379;-70
2022/09/09 07:10:18;;;;;;;1.50;0.73;;;;;;;13.94;92.83;97602.16;6099782;29;20235;-70
2022/09/09 07:13:25;;;;;;;1.13;0.70;;;;;;;14.02;92.81;97602.25;6101698;29;20262;-70
2022/09/09 07:16:31;;;;;;;1.93;0.90;;;;;;;14.16;92.59;97608.06;6084861;29;20240;-70
2022/09/09 07:19:35;;;;;;;0.67;0.60;;;;;;;14.32;92.23;97602.94;6100468;29;20264;-71
2022/09/09 07:22:38;;;;;;;2.53;0.70;;;;;;;14.58;91.28;97605.75;6085693;29;20310;-70
2022/09/09 07:25:47;;;;;;;0.53;0.50;;;;;;;14.76;90.75;97611.94;6083371;29;20246;-70
2022/09/09 07:28:50;;;;;;;1.83;0.80;;;;;;;14.84;90.56;97612.00;6101471;29;20243;-70
2022/09/09 07:31:53;;;;;;;0.87;0.70;;;;;;;14.86;90.01;97612.69;6083286;29;20319;-70
2022/09/09 07:35:00;;;;;;;3.30;0.87;;;;;;;15.11;89.58;97606.59;6099052;29;20238;-70
2022/09/09 07:38:06;;;;;;;0.70;0.70;;;;;;;15.59;88.02;97609.81;6099850;29;20707;-71
2022/09/09 07:41:11;;;;;;;1.07;0.80;;;;;;;15.92;87.09;97613.53;6083843;29;20602;-71
2022/09/09 07:44:21;;;;;;;0.50;0.50;;;;;;;16.15;86.60;97612.81;6098990;29;20291;-71
2022/09/09 07:47:28;;;;;;;2.23;0.60;;;;;;;16.33;86.16;97618.03;6082896;29;20281;-71
2022/09/09 07:50:31;;;;;;;1.00;0.43;;;;;;;16.42;86.28;97629.56;6082991;29;20228;-71
2022/09/09 07:53:34;;;;;;;1.90;0.70;;;;;;;16.50;86.54;97626.91;6082586;29;20243;-71
2022/09/09 07:56:39;;;;;;;2.07;0.70;;;;;;;16.73;86.00;97629.84;6094311;29;20348;-71
2022/09/09 07:59:42;;;;;;;0.80;0.60;;;;;;;16.94;84.56;97623.06;6098285;29;20282;-71
2022/09/09 08:02:46;;;;;;;0.50;0.50;;;;;;;17.13;83.82;97623.75;6098811;29;20246;-71
2022/09/09 08:05:48;;;;;;;3.63;0.70;;;;;;;17.46;82.82;97625.44;6085249;29;20274;-71
2022/09/09 08:08:51;;;;;;;0.53;0.53;;;;;;;17.83;81.47;97624.94;6082171;29;20325;-71
2022/09/09 08:11:56;;;;;;;0.70;0.70;;;;;;;18.15;80.57;97616.00;6099426;29;20386;-71
2022/09/09 08:14:58;;;;;;;0.60;0.60;;;;;;;18.44;79.39;97618.06;6084814;29;20615;-71
2022/09/09 08:18:05;;;;;;;0.87;0.60;;;;;;;18.78;78.03;97621.22;6098031;29;20259;-71
2022/09/09 08:21:13;;;;;;;4.53;0.80;;;;;;;19.10;76.72;97620.19;6083515;29;20231;-71
2022/09/09 08:24:16;;;;;;;1.83;0.83;;;;;;;19.16;75.05;97624.81;6097891;29;20675;-71
2022/09/09 08:27:22;;;;;;;2.73;0.77;;;;;;;19.33;73.49;97622.88;6102399;29;20254;-72
2022/09/09 08:30:25;;;;;;;1.60;0.70;;;;;;;19.49;73.78;97621.94;6084246;29;20235;-71
2022/09/09 08:33:27;;;;;;;1.87;0.60;;;;;;;-144.22;100.00;60274.75;6086399;29;20231;-72
2022/09/09 08:36:36;;;;;;;2.23;0.77;;;;;;;-144.22;100.00;60274.75;6103043;29;20227;-72
2022/09/09 08:39:38;;;;;;;1.17;0.60;;;;;;;-144.22;100.00;60274.75;6102191;29;20235;-72
2022/09/09 08:42:51;;;;;;;0.77;0.50;;;;;;;-144.22;100.00;60274.75;6102709;29;20698;-72
2022/09/09 08:46:11;;;;;;;1.17;0.83;;;;;;;-144.22;100.00;60274.75;6101412;29;20604;-71
2022/09/09 08:49:36;;;;;;;1.30;0.63;;;;;;;-144.22;100.00;60274.75;6102566;29;20232;-71
2022/09/09 08:53:03;;;;;;;0.90;0.70;;;;;;;21.36;100.00;60274.75;6102630;29;20240;-71
2022/09/09 08:56:13;;;;;;;1.00;0.53;;;;;;;-144.22;100.00;60274.75;6101623;29;20244;-71
2022/09/09 08:59:19;;;;;;;1.20;0.50;;;;;;;22.78;100.00;60274.75;6102057;29;20710;-70
2022/09/09 09:02:46;;;;;;;2.50;0.60;;;;;;;-144.22;100.00;60274.75;6102728;29;20607;-71
2022/09/09 09:05:48;;;;;;;1.27;0.60;;;;;;;-144.22;100.00;60274.75;6101910;29;20232;-71
2022/09/09 09:08:59;;;;;;;0.83;0.57;;;;;;;21.61;100.00;60274.75;6100870;29;20324;-71
2022/09/09 09:12:16;;;;;;;2.27;0.70;;;;;;;-144.22;100.00;60274.75;6100876;29;20236;-70
2022/09/09 09:15:24;;;;;;;4.07;0.63;;;;;;;21.39;63.14;97595.13;6101395;29;20291;-70
2022/09/09 09:18:31;;;;;;;2.37;0.60;;;;;;;21.37;64.01;97595.31;6100957;29;20232;-69
2022/09/09 09:21:43;;;;;;;0.90;0.50;;;;;;;21.28;62.67;97591.94;6085909;29;20595;-69
2022/09/09 09:24:50;;;;;;;1.10;0.67;;;;;;;21.31;62.81;97586.19;6080107;29;20236;-70
2022/09/09 09:28:17;;;;;;;2.10;0.57;;;;;;;21.36;63.60;97586.44;6099412;29;20231;-70
2022/09/09 09:31:23;;;;;;;2.83;0.60;;;;;;;21.41;61.00;97588.56;6100920;29;20326;-70
2022/09/09 09:34:25;;;;;;;1.10;0.50;;;;;;;21.58;100.00;60274.75;6101959;29;20360;-70
2022/09/09 09:37:34;;;;;;;1.00;0.50;;;;;;;-144.22;100.00;60274.75;6101032;29;20710;-70
2022/09/09 09:40:49;;;;;;;0.93;0.67;;;;;;;-144.22;100.00;60274.75;6102027;29;20240;-70
2022/09/09 09:43:54;;;;;;;1.90;0.57;;;;;;;-144.22;100.00;60274.75;6101369;29;20243;-70
2022/09/09 09:47:17;;;;;;;0.60;0.40;;;;;;;-144.22;100.00;60274.75;6101145;29;20292;-69
2022/09/09 09:51:04;;;;;;;1.50;0.60;;;;;;;26.93;100.00;60274.75;6082683;29;20384;-69
2022/09/09 09:54:27;;;;;;;2.33;0.60;;;;;;;-144.22;100.00;60274.75;6093712;29;20353;-69
2022/09/09 09:57:34;;;;;;;0.67;0.50;;;;;;;-144.22;100.00;60274.75;6093885;29;20343;-70
2022/09/09 10:00:52;;;;;;;0.50;0.50;;;;;;;104.84;100.00;60274.75;6086765;29;20247;-70
2022/09/09 10:04:00;;;;;;;1.77;0.60;;;;;;;-144.22;100.00;60274.75;6099383;29;20236;-70
2022/09/09 10:07:11;;;;;;;1.23;0.60;;;;;;;-144.22;100.00;60274.75;6079190;29;20747;-70
2022/09/09 10:10:24;;;;;;;2.00;0.57;;;;;;;-144.22;100.00;60274.75;6082238;29;20730;-70
2022/09/09 10:13:59;;;;;;;0.97;0.60;;;;;;;-144.22;100.00;60274.75;6084512;29;20685;-69
2022/09/09 10:17:16;;;;;;;0.63;0.40;;;;;;;-144.22;100.00;60274.75;6079815;29;20225;-70
2022/09/09 10:20:44;;;;;;;2.30;0.70;;;;;;;-144.22;100.00;60274.75;6074843;29;20239;-69
2022/09/09 10:24:13;;;;;;;2.15;0.60;;;;;;;-144.22;100.00;60274.75;6071494;29;20824;-71
2022/09/09 10:27:22;;;;;;;0.45;0.45;;;;;;;-144.22;100.00;60274.75;6070127;29;20231;-69
2022/09/09 10:30:37;;;;;;;0.40;0.40;;;;;;;-144.22;100.00;60274.75;6076478;29;20246;-70
2022/09/09 10:33:53;;;;;;;0.90;0.63;;;;;;;-144.22;100.00;60274.75;6077009;29;20691;-70
2022/09/09 10:36:55;;;;;;;1.10;0.80;;;;;;;-144.22;100.00;60274.75;6081100;29;20235;-69
2022/09/09 10:40:38;;;;;;;0.68;0.50;;;;;;;-144.22;100.00;60274.75;6081898;29;20224;-69
2022/09/09 10:44:19;;;;;;;1.45;0.60;;;;;;;-144.22;100.00;60274.75;6072516;29;20232;-69
2022/09/09 10:47:50;;;;;;;0.85;0.65;;;;;;;-144.22;100.00;60274.75;6073347;29;20700;-69
2022/09/09 10:50:56;;;;;;;1.02;0.40;;;;;;;-144.22;100.00;60274.75;6079687;29;20228;-70
2022/09/09 10:54:28;;;;;;;2.33;0.60;;;;;;;25.64;100.00;60274.75;6076636;29;20258;-70
2022/09/09 10:57:41;;;;;;;1.77;0.70;;;;;;;-144.22;100.00;60274.75;6076340;29;20247;-70
2022/09/09 11:00:51;;;;;;;0.38;0.38;;;;;;;104.84;100.00;60274.75;6070635;29;20348;-70
2022/09/09 11:04:05;;;;;;;2.10;0.52;;;;;;;-144.22;100.00;60274.75;6075025;29;20267;-71
2022/09/09 11:07:13;;;;;;;2.72;0.60;;;;;;;32.13;100.00;60274.75;6081413;29;20239;-70
2022/09/09 11:10:18;;;;;;;0.85;0.45;;;;;;;-144.22;100.00;60274.75;6071434;29;20242;-70
2022/09/09 11:13:28;;;;;;;0.80;0.50;;;;;;;32.13;100.00;60274.75;6078579;29;20710;-70
2022/09/09 11:16:42;;;;;;;2.15;0.60;;;;;;;-144.22;100.00;60274.75;6078096;29;20235;-70
2022/09/09 11:19:44;;;;;;;2.47;0.77;;;;;;;63.28;100.00;60274.75;6075880;29;20228;-70
2022/09/09 11:22:55;;;;;;;1.90;0.70;;;;;;;-144.22;100.00;60274.75;6071812;29;20590;-70
2022/09/09 11:26:03;;;;;;;0.40;0.40;;;;;;;-144.22;100.00;60274.75;6076576;29;20228;-70
2022/09/09 11:29:38;;;;;;;0.43;0.43;;;;;;;-144.22;100.00;60274.75;6087053;29;20727;-70
2022/09/09 11:32:53;;;;;;;0.43;0.43;;;;;;;-144.22;100.00;60274.75;6093360;29;20239;-70
2022/09/09 11:36:34;;;;;;;0.80;0.50;;;;;;;-144.22;100.00;60274.75;6073584;29;20278;-70
2022/09/09 11:39:52;;;;;;;1.27;0.40;;;;;;;-144.22;100.00;60274.75;6016354;29;20241;-70
2022/09/09 11:43:23;;;;;;;1.13;0.60;;;;;;;-144.22;100.00;60274.75;6024562;29;21150;-70
2022/09/09 11:46:38;;;;;;;1.00;0.50;;;;;;;-144.22;100.00;60274.75;6029094;29;20261;-70
2022/09/09 11:49:41;;;;;;;1.70;0.50;;;;;;;-144.22;100.00;60274.75;6027348;29;20237;-71
2022/09/09 11:52:47;;;;;;;1.10;0.70;;;;;;;32.13;100.00;60274.75;6009541;29;20273;-71
2022/09/09 11:56:15;;;;;;;1.20;0.52;;;;;;;-144.22;100.00;60274.75;6030975;29;20281;-70
2022/09/09 11:59:26;;;;;;;0.82;0.50;;;;;;;26.67;100.00;81346.41;6022689;29;20221;-71
2022/09/09 12:02:31;;;;;;;2.60;0.50;;;;;;;-144.22;100.00;60274.75;6015427;29;20747;-70
2022/09/09 12:05:45;;;;;;;1.65;0.40;;;;;;;-144.22;100.00;60274.75;6026187;29;20222;-70
2022/09/09 12:08:53;;;;;;;0.57;0.57;;;;;;;-144.22;100.00;60274.75;6033711;29;20269;-71
2022/09/09 12:12:22;;;;;;;2.13;0.70;;;;;;;-144.22;100.00;60274.75;6031233;29;20234;-70
2022/09/09 12:15:28;;;;;;;1.45;0.65;;;;;;;-144.22;100.00;60274.75;6083883;29;20228;-70
2022/09/09 12:18:42;;;;;;;0.80;0.77;;;;;;;42.51;100.00;60274.75;6081434;29;20686;-71
2022/09/09 12:22:07;;;;;;;0.85;0.70;;;;;;;-144.22;100.00;60274.75;6083399;29;20243;-71
2022/09/09 12:25:35;;;;;;;1.58;0.80;;;;;;;-144.22;100.00;60274.75;6087696;29;20224;-71
2022/09/09 12:28:45;;;;;;;0.55;0.50;;;;;;;-144.22;100.00;60274.75;6081927;29;20236;-71
2022/09/09 12:31:46;;;;;;;0.55;0.47;;;;;;;-144.22;100.00;60274.75;6093415;29;20738;-71
2022/09/09 12:34:51;;;;;;;1.55;0.70;;;;;;;-144.22;100.00;60274.75;6086076;29;20632;-72
2022/09/09 12:38:03;;;;;;;0.47;0.47;;;;;;;-144.22;100.00;60274.75;6089368;29;20254;-71
2022/09/09 12:41:05;;;;;;;1.33;0.60;;;;;;;-144.22;100.00;60274.75;6087199;29;20236;-71
2022/09/09 12:44:10;;;;;;;1.70;0.50;;;;;;;-144.22;100.00;60274.75;6083569;29;21464;-72
2022/09/09 12:47:13;;;;;;;1.20;0.65;;;;;;;-144.22;100.00;60274.75;6099655;29;20695;-72
2022/09/09 12:50:27;;;;;;;0.88;0.50;;;;;;;-144.22;100.00;60274.75;6087551;29;20715;-72
2022/09/09 12:53:36;;;;;;;0.60;0.50;;;;;;;-144.22;100.00;60274.75;6082587;29;20224;-72
2022/09/09 12:56:39;;;;;;;0.50;0.50;;;;;;;-144.22;100.00;60274.75;6079501;29;20237;-72
2022/09/09 12:59:45;;;;;;;0.43;0.43;;;;;;;-144.22;100.00;60274.75;6079668;29;20255;-72
2022/09/09 13:02:53;;;;;;;0.68;0.50;;;;;;;-144.22;100.00;60274.75;6086325;29;20221;-71
2022/09/09 13:06:02;;;;;;;2.97;0.52;;;;;;;-144.22;100.00;60274.75;6100377;29;20341;-72
2022/09/09 13:09:04;;;;;;;2.83;0.70;;;;;;;-144.22;100.00;60274.75;6082711;29;20327;-72
2022/09/09 13:12:13;;;;;;;0.93;0.50;;;;;;;-144.22;100.00;60274.75;6078584;29;20370;-72
2022/09/09 13:15:26;;;;;;;1.08;0.80;;;;;;;-144.22;100.00;60274.75;6081227;29;20228;-72
2022/09/09 13:18:38;;;;;;;0.97;0.50;;;;;;;-144.22;100.00;60274.75;6070603;29;20319;-72
2022/09/09 13:21:40;;;;;;;0.73;0.57;;;;;;;-144.22;100.00;60274.75;6092822;29;20235;-71
2022/09/09 13:24:42;;;;;;;4.45;0.98;;;;;;;-144.22;100.00;60274.75;6085621;29;20227;-72
2022/09/09 13:27:57;;;;;;;0.67;0.57;;;;;;;-144.22;100.00;60274.75;6094549;29;20444;-72
2022/09/09 13:31:04;;;;;;;1.13;0.60;;;;;;;-144.22;100.00;60274.75;6080245;29;20252;-72
2022/09/09 13:34:28;;;;;;;0.50;0.50;;;;;;;-144.22;100.00;60274.75;6078191;29;20224;-72
2022/09/09 13:37:36;;;;;;;0.80;0.50;;;;;;;-144.22;100.00;60274.75;6070700;29;20699;-72
2022/09/09 13:40:38;;;;;;;0.67;0.57;;;;;;;-144.22;100.00;60274.75;6074205;29;20238;-72
2022/09/09 13:43:47;;;;;;;2.83;0.80;;;;;;;-144.22;100.00;60274.75;6094850;29;20679;-72
2022/09/09 13:47:08;;;;;;;1.03;0.57;;;;;;;-144.22;100.00;60274.75;6079723;29;20243;-72
2022/09/09 13:50:23;;;;;;;1.27;0.60;;;;;;;-144.22;100.00;60274.75;6095108;29;20607;-71
2022/09/09 13:53:26;;;;;;;4.53;0.70;;;;;;;-144.22;100.00;60274.75;6098520;29;20287;-71
2022/09/09 13:56:28;;;;;;;1.33;0.77;;;;;;;-144.22;100.00;60274.75;6071908;29;20588;-72
2022/09/09 13:59:31;;;;;;;1.60;0.70;;;;;;;-144.22;100.00;60274.75;6072947;29;20628;-72
2022/09/09 14:02:54;;;;;;;0.93;0.80;;;;;;;-144.22;100.00;60274.75;6068177;29;20716;-72
2022/09/09 14:05:57;;;;;;;1.93;0.70;;;;;;;-144.22;100.00;60274.75;6077859;29;20235;-72
2022/09/09 14:08:59;;;;;;;2.97;0.67;;;;;;;-144.22;100.00;60274.75;6087878;29;20247;-72
2022/09/09 14:12:02;;;;;;;3.07;0.50;;;;;;;-144.22;100.00;60274.75;6097982;29;20216;-72
2022/09/09 14:15:06;;;;;;;0.73;0.50;;;;;;;-144.22;100.00;60274.75;6085159;29;20228;-72
2022/09/09 14:18:12;;;;;;;0.60;0.60;;;;;;;-144.22;100.00;60274.75;6085369;29;20229;-72
2022/09/09 14:21:15;;;;;;;0.50;0.37;;;;;;;-144.22;100.00;60274.75;6086538;29;20311;-72
2022/09/09 14:24:17;;;;;;;0.63;0.50;;;;;;;-144.22;100.00;60274.75;6072144;29;20254;-72
2022/09/09 14:27:19;;;;;;;1.27;0.77;;;;;;;-144.22;100.00;60274.75;6073271;29;20224;-72
2022/09/09 14:30:21;;;;;;;0.50;0.47;;;;;;;-144.22;100.00;60274.75;6080845;29;20239;-72
2022/09/09 14:33:24;;;;;;;0.40;0.40;;;;;;;-144.22;100.00;60274.75;6078306;29;20233;-72
2022/09/09 14:36:26;;;;;;;0.63;0.50;;;;;;;-144.22;100.00;60274.75;6094646;29;20235;-72
2022/09/09 14:39:28;;;;;;;0.47;0.33;;;;;;;-144.22;100.00;60274.75;6072258;29;20585;-72
2022/09/09 14:42:30;;;;;;;1.03;0.50;;;;;;;-144.22;100.00;60274.75;6099621;29;20652;-72